Data for 04/19/2010

Time Sea-Level Adjusted Pressure Absolute Pressure Temperature Relative Humidity Dew Point   
(mb) (inHg) (mb) (inHg) (C) (F) (%) (C) (F)
00:05 1017 30.03 846 24.98 7.7 45.8 42 -4.3 24.3
00:10 1017 30.03 846 24.98 8.2 46.8 39 -5 23
00:15 1017 30.03 846 24.98 8.8 47.8 38 -4.7 23.5
00:20 1017 30.03 846 24.98 8.9 48.1 38 -4.6 23.7
00:25 1017 30.03 846 24.98 8.8 47.8 39 -4.3 24.2
00:30 1017 30.03 846 24.98 8.6 47.5 40 -4.3 24.2
00:35 1017 30.03 846 24.98 8.5 47.2 40 -4.2 24.4
00:40 1017 30.03 846 24.98 8.4 47.1 41 -4.1 24.6
00:45 1017 30.03 846 24.98 8.2 46.8 42 -4 24.8
00:50 1017 30.03 846 24.98 8 46.3 42 -4.1 24.6
00:55 1017 30.03 846 24.98 7.9 46.3 43 -3.9 25
01:00 1017 30.03 846 24.98 7.7 45.9 42 -4.3 24.3
01:05 1017 30.03 846 24.98 7.6 45.6 43 -4.3 24.3
01:10 1017 30.03 846 24.98 7.2 45 43 -4.4 24.1
01:15 1017 30.03 846 24.98 7 44.5 44 -4.6 23.8
01:20 1017 30.03 846 24.98 6.9 44.5 43 -4.7 23.6
01:25 1017 30.03 846 24.98 6.9 44.4 43 -4.7 23.5
01:30 1017 30.03 846 24.98 7 44.6 43 -4.7 23.6
01:35 1017 30.03 846 24.98 7 44.7 42 -4.9 23.2
01:40 1017 30.03 846 24.98 7.4 45.4 41 -4.9 23.2
01:45 1017 30.03 846 24.98 7.4 45.4 42 -4.7 23.6
01:50 1017 30.03 846 24.98 7.4 45.3 42 -4.7 23.5
01:55 1017 30.03 846 24.98 7.5 45.5 41 -5 23
02:00 1017 30.03 846 24.98 7.4 45.4 42 -4.5 23.8
02:05 1017 30.03 846 24.98 7.2 45 43 -4.5 23.8
02:10 1017 30.03 846 24.98 7 44.7 44 -4.5 23.9
02:15 1017 30.03 846 24.98 6.9 44.4 44 -4.4 24
02:20 1017 30.03 846 24.98 6.8 44.2 45 -4.4 24.1
02:25 1017 30.03 846 24.98 6.8 44.2 44 -4.6 23.7
02:30 1017 30.03 846 24.98 6.8 44.2 45 -4.4 24.1
02:35 1017 30.03 846 24.98 6.6 43.9 45 -4.4 24
02:40 1017 30.03 846 24.98 6.5 43.8 45 -4.5 23.9
02:45 1017 30.03 846 24.98 6.5 43.6 45 -4.5 23.9
02:50 1017 30.03 846 24.98 6.4 43.5 46 -4.3 24.2
02:55 1017 30.03 846 24.98 6.3 43.3 47 -4.1 24.6
03:00 1017 30.03 846 24.98 6 42.8 48 -4.1 24.7
03:05 1017 30.03 846 24.98 5.8 42.4 50 -3.9 24.9
03:10 1017 30.03 846 24.98 5.7 42.3 49 -4.2 24.4
03:15 1017 30.03 846 24.98 6.1 42.9 47 -4.4 24
03:20 1017 30.03 846 24.98 6.4 43.5 46 -4.4 24.1
03:25 1017 30.03 846 24.98 6.4 43.5 46 -4.3 24.2
03:30 1017 30.03 846 24.98 6.5 43.7 45 -4.6 23.8
03:35 1017 30.03 846 24.98 6.4 43.6 47 -4.1 24.6
03:40 1017 30.03 846 24.98 6.2 43.2 47 -4.2 24.5
03:45 1017 30.03 846 24.98 6 42.9 48 -4.2 24.4
03:50 1017 30.03 847 25.01 5.7 42.3 49 -4.1 24.6
03:55 1017 30.03 847 25.01 5.5 41.8 52 -3.7 25.4
04:00 1017 30.03 846 24.98 5 41.1 53 -3.8 25.1
04:05 1017 30.03 846 24.98 5.2 41.3 52 -3.9 25
04:10 1017 30.03 847 25.01 4.9 40.9 54 -3.7 25.4
04:15 1017 30.03 847 25.01 4.8 40.6 54 -3.7 25.4
04:20 1017 30.03 847 25.01 4.7 40.5 53 -4 24.7
04:25 1017 30.03 847 25.01 4.7 40.5 56 -3.4 25.9
04:30 1017 30.03 847 25.01 4.4 39.9 56 -3.6 25.4
04:35 1017 30.03 847 25.01 4.4 40 54 -4 24.9
04:40 1017 30.03 847 25.01 5 41.1 52 -4 24.9
04:45 1017 30.03 847 25.01 5.1 41.1 52 -3.9 25
04:50 1017 30.03 847 25.01 5.1 41.3 52 -3.9 25
04:55 1017 30.03 847 25.01 5 41.1 52 -4 24.8
05:00 1017 30.03 847 25.01 5.5 41.9 50 -4 24.8
05:05 1017 30.03 847 25.01 5.6 42 51 -3.8 25.2
05:10 1017 30.03 846 24.98 5.7 42.2 50 -4 24.9
05:15 1017 30.03 846 24.98 5.3 41.6 52 -3.7 25.3
05:20 1017 30.03 847 25.01 5.4 41.7 51 -3.9 25
05:25 1017 30.03 847 25.01 5.2 41.4 52 -3.7 25.4
05:30 1017 30.03 847 25.01 5.7 42.3 53 -3.2 26.3
05:35 1017 30.03 846 24.98 5.6 42 53 -3.3 26
05:40 1017 30.03 846 24.98 5.3 41.5 51 -4.1 24.6
05:45 1017 30.03 846 24.98 5.3 41.5 53 -3.5 25.7
05:50 1017 30.03 846 24.98 5.3 41.5 53 -3.5 25.7
05:55 1017 30.03 847 25.01 5.3 41.5 55 -3.1 26.3
06:00 1017 30.03 847 25.01 5.4 41.7 54 -3.2 26.3
06:05 1017 30.03 847 25.01 5.1 41.2 54 -3.4 25.9
06:10 1017 30.03 847 25.01 5 41 54 -3.5 25.7
06:15 1017 30.03 847 25.01 4.8 40.7 55 -3.4 25.8
06:20 1017 30.03 847 25.01 4.7 40.5 56 -3.3 26
06:25 1017 30.03 847 25.01 4.8 40.7 56 -3.2 26.3
06:30 1017 30.03 847 25.01 4.8 40.6 57 -3.1 26.4
06:35 1017 30.03 847 25.01 4.5 40.1 57 -3.2 26.2
06:40 1018 30.06 847 25.01 4.2 39.6 58 -3.3 26
06:45 1018 30.06 847 25.01 4.2 39.5 58 -3.5 25.8
06:50 1018 30.06 847 25.01 4.5 40.1 56 -3.5 25.7
06:55 1018 30.06 847 25.01 4.7 40.4 55 -3.7 25.3
07:00 1018 30.06 847 25.01 5 41 54 -3.6 25.5
07:05 1018 30.06 847 25.01 5.1 41.2 52 -3.8 25.1
07:10 1018 30.06 847 25.01 5.1 41.1 54 -3.5 25.7
07:15 1018 30.06 847 25.01 5 41 53 -3.8 25.1
07:20 1018 30.06 847 25.01 5.1 41.1 54 -3.5 25.6
07:25 1018 30.06 847 25.01 4.9 40.9 54 -3.5 25.6
07:30 1018 30.06 847 25.01 5 41 53 -3.7 25.4
07:35 1018 30.06 847 25.01 5 41 55 -3.4 25.9
07:40 1018 30.06 847 25.01 4.9 40.9 55 -3.4 25.8
07:45 1018 30.06 847 25.01 5.2 41.4 53 -3.5 25.7
07:50 1018 30.06 847 25.01 5.5 41.9 52 -3.4 25.8
07:55 1018 30.06 847 25.01 6 42.7 49 -3.9 25
08:00 1018 30.06 847 25.01 6.7 44 47 -3.8 25.2
08:05 1018 30.06 847 25.01 7.4 45.3 46 -3.5 25.7
08:10 1018 30.06 847 25.01 8.4 47.1 43 -3.4 25.8
08:15 1018 30.06 847 25.01 8.7 47.7 43 -3.3 26.1
08:20 1018 30.06 847 25.01 9.2 48.5 42 -3 26.6
08:25 1018 30.06 847 25.01 9.2 48.5 43 -2.8 26.9
08:30 1018 30.06 847 25.01 9.1 48.4 41 -3.3 26
08:35 1018 30.06 847 25.01 9.2 48.5 41 -3.4 25.8
08:40 1018 30.06 847 25.01 9.4 48.9 40 -3.7 25.4
08:45 1018 30.06 847 25.01 9.9 49.7 38 -3.9 25
08:50 1018 30.06 847 25.01 10.3 50.5 36 -4.1 24.6
08:55 1018 30.06 847 25.01 10.7 51.2 36 -3.9 24.9
09:00 1018 30.06 847 25.01 10.4 50.6 37 -3.8 25.2
09:05 1018 30.06 847 25.01 10.9 51.7 36 -3.5 25.8
09:10 1018 30.06 847 25.01 11.2 52.2 38 -2.5 27.5
09:15 1018 30.06 847 25.01 11.5 52.7 34 -4 24.9
09:20 1018 30.06 847 25.01 11.6 52.8 35 -3.3 26
09:25 1018 30.06 847 25.01 12.2 53.9 32 -3.8 25.1
09:30 1018 30.06 847 25.01 12.6 54.6 34 -2.8 26.9
09:35 1018 30.06 847 25.01 12.5 54.5 34 -3 26.7
09:40 1018 30.06 847 25.01 12.7 54.9 33 -3 26.7
09:45 1018 30.06 847 25.01 12.7 54.9 34 -2.7 27.2
09:50 1018 30.06 847 25.01 12.9 55.2 34 -2.7 27.2
09:55 1017 30.03 847 25.01 13.1 55.7 32 -3.1 26.5
10:00 1017 30.03 847 25.01 14.2 57.5 32 -2.3 27.9
10:05 1017 30.03 847 25.01 13.4 56.1 36 -1.5 29.3
10:10 1017 30.03 847 25.01 13.3 56 35 -1.8 28.8
10:15 1017 30.03 847 25.01 13 55.4 35 -2.2 28
10:20 1017 30.03 847 25.01 13.6 56.4 32 -2.7 27.1
10:25 1017 30.03 846 24.98 13.5 56.4 33 -2.4 27.7
10:30 1017 30.03 846 24.98 13.7 56.6 33 -2.4 27.8
10:35 1017 30.03 846 24.98 14.1 57.3 32 -2.5 27.5
10:40 1017 30.03 846 24.98 14.4 58 30 -2.7 27.2
10:45 1017 30.03 846 24.98 14.4 58 32 -2.1 28.3
10:50 1017 30.03 846 24.98 14.2 57.6 31 -2.8 27
10:55 1017 30.03 846 24.98 14.4 57.9 30 -3 26.6
11:00 1017 30.03 846 24.98 14.6 58.2 31 -2.4 27.7
11:05 1017 30.03 846 24.98 13.9 56.9 32 -2.7 27.2
11:10 1017 30.03 846 24.98 14.1 57.5 31 -2.8 27
11:15 1017 30.03 846 24.98 15.1 59.1 28 -3.2 26.2
11:20 1017 30.03 846 24.98 15.8 60.4 29 -2.2 28
11:25 1017 30.03 846 24.98 15.3 59.6 29 -2.4 27.6
11:30 1017 30.03 846 24.98 15.7 60.3 28 -2.6 27.4
11:35 1017 30.03 846 24.98 16.1 61 28 -2.1 28.3
11:40 1017 30.03 846 24.98 15.6 60.1 29 -2.1 28.2
11:45 1017 30.03 846 24.98 16.4 61.5 27 -2.4 27.7
11:50 1017 30.03 846 24.98 16.5 61.6 27 -2.4 27.7
11:55 1017 30.03 846 24.98 16.5 61.6 27 -2.5 27.6
12:00 1017 30.03 846 24.98 16.9 62.3 28 -1.7 29
12:05 1017 30.03 846 24.98 16.1 60.9 28 -2.3 27.9
12:10 1017 30.03 846 24.98 16.8 62.2 27 -2.3 27.9
12:15 1017 30.03 846 24.98 17.2 63 27 -2 28.4
12:20 1017 30.03 846 24.98 17.4 63.4 26 -2.1 28.2
12:25 1017 30.03 846 24.98 17.2 62.9 27 -1.6 29.1
12:30 1017 30.03 846 24.98 17.4 63.3 26 -2.1 28.2
12:35 1016 30 846 24.98 17.5 63.5 27 -1.8 28.7
12:40 1016 30 846 24.98 17.3 63.1 27 -1.7 28.9
12:45 1016 30 846 24.98 16.7 62 27 -2.1 28.2
12:50 1016 30 846 24.98 17.7 63.8 26 -1.8 28.7
12:55 1016 30 845 24.95 18.6 65.4 24 -2 28.3
13:00 1016 30 845 24.95 18.5 65.3 26 -1.2 29.8
13:05 1016 30 845 24.95 17.8 64 27 -1.4 29.6
13:10 1016 30 845 24.95 16.9 62.4 28 -1.9 28.6
13:15 1016 30 845 24.95 16.9 62.5 27 -2.2 28.1
13:20 1016 30 845 24.95 18.1 64.6 24 -2.6 27.3
13:25 1016 30 845 24.95 18.6 65.5 26 -1.3 29.6
13:30 1016 30 845 24.95 18.2 64.8 27 -1 30.2
13:35 1016 30 845 24.95 19.3 66.7 23 -2.1 28.3
13:40 1016 30 845 24.95 19.7 67.5 23 -1.7 28.9
13:45 1016 30 845 24.95 19.6 67.2 23 -1.9 28.6
13:50 1016 30 845 24.95 18.4 65.2 25 -1.7 29
13:55 1016 30 845 24.95 17.9 64.2 25 -2.5 27.6
14:00 1016 30 845 24.95 18.6 65.5 24 -2.2 28.1
14:05 1016 30 845 24.95 19.5 67.2 24 -1.5 29.3
14:10 1016 30 845 24.95 20 67.9 23 -1.8 28.7
14:15 1016 30 845 24.95 20.2 68.3 23 -1.6 29.1
14:20 1016 30 845 24.95 19.4 66.9 23 -2.3 27.9
14:25 1016 30 845 24.95 19.9 67.9 22 -2 28.4
14:30 1016 30 845 24.95 20 67.9 22 -2.4 27.7
14:35 1016 30 845 24.95 19.3 66.7 21 -3.3 26
14:40 1016 30 845 24.95 19.3 66.7 21 -3.5 25.8
14:45 1016 30 845 24.95 19.8 67.7 18 -5.3 22.5
14:50 1016 30 845 24.95 19.1 66.3 17 -6.2 20.8
14:55 1016 30 845 24.95 19 66.2 19 -4.8 23.3
15:00 1016 30 845 24.95 20.2 68.3 19 -3.8 25.2
15:05 1015 29.97 845 24.95 21 69.7 18 -3.8 25.2
15:10 1015 29.97 845 24.95 21.7 71.1 18 -3.6 25.5
15:15 1015 29.97 845 24.95 21.4 70.4 19 -3.2 26.3
15:20 1015 29.97 845 24.95 21 69.8 15 -6.2 20.9
15:25 1015 29.97 845 24.95 20.8 69.5 18 -3.9 24.9
15:30 1015 29.97 844 24.92 21.1 70 18 -4.3 24.2
15:35 1015 29.97 844 24.92 21.5 70.6 15 -5.9 21.4
15:40 1015 29.97 844 24.92 21.3 70.3 15 -6.4 20.6
15:45 1015 29.97 844 24.92 21.4 70.6 15 -5.9 21.4
15:50 1015 29.97 844 24.92 22.2 71.9 15 -5.2 22.6
15:55 1015 29.97 844 24.92 21.9 71.4 15 -5.6 22
16:00 1015 29.97 844 24.92 21.5 70.6 15 -5.8 21.6
16:05 1015 29.97 844 24.92 21.4 70.5 15 -6.6 20.2
16:10 1015 29.97 844 24.92 21.2 70.2 17 -4.3 24.3
16:15 1015 29.97 844 24.92 20.3 68.5 17 -5.6 22
16:20 1015 29.97 844 24.92 20.2 68.3 15 -6.9 19.5
16:25 1015 29.97 844 24.92 20.2 68.3 15 -7 19.5
16:30 1015 29.97 844 24.92 20.4 68.8 15 -6.7 20
16:35 1015 29.97 844 24.92 20.5 68.9 15 -7.3 18.9
16:40 1015 29.97 844 24.92 20.9 69.6 15 -6.7 20
16:45 1015 29.97 844 24.92 20.8 69.4 15 -7 19.4
16:50 1015 29.97 844 24.92 20 68.1 15 -7.3 18.8
16:55 1015 29.97 844 24.92 20.1 68.1 15 -7.6 18.4
17:00 1015 29.97 844 24.92 20.9 69.6 15 -6.6 20.1
17:05 1015 29.97 844 24.92 20 67.9 17 -6 21.2
17:10 1015 29.97 844 24.92 19.7 67.5 15 -7.2 19.1
17:15 1015 29.97 844 24.92 20.6 69.1 15 -7 19.4
17:20 1015 29.97 844 24.92 20.9 69.7 15 -6.8 19.8
17:25 1015 29.97 844 24.92 21.1 70 15 -6.8 19.8
17:30 1015 29.97 844 24.92 20.8 69.5 15 -6.8 19.7
17:35 1015 29.97 844 24.92 21.1 70 15 -6.6 20.1
17:40 1015 29.97 844 24.92 20.8 69.5 15 -6.8 19.7
17:45 1015 29.97 844 24.92 20 67.9 15 -6.9 19.5
17:50 1015 29.97 844 24.92 19.6 67.4 15 -7.2 19
17:55 1015 29.97 844 24.92 20.2 68.3 15 -7.3 18.8
18:00 1015 29.97 844 24.92 20.4 68.7 15 -7.1 19.2
18:05 1015 29.97 844 24.92 20.2 68.3 15 -7 19.4
18:10 1015 29.97 844 24.92 19.5 67.1 16 -7.2 19
18:15 1015 29.97 844 24.92 19.3 66.7 17 -6.3 20.7
18:20 1015 29.97 844 24.92 20 68 16 -6.8 19.7
18:25 1015 29.97 844 24.92 20.2 68.4 16 -6.2 20.8
18:30 1015 29.97 844 24.92 19.8 67.6 16 -6.5 20.3
18:35 1015 29.97 844 24.92 19.6 67.4 16 -6.9 19.6
18:40 1015 29.97 844 24.92 19.5 67 17 -5.8 21.5
18:45 1015 29.97 844 24.92 19.4 66.9 17 -6.3 20.7
18:50 1015 29.97 844 24.92 19 66.2 16 -7.4 18.7
18:55 1015 29.97 844 24.92 18.8 65.8 16 -7.1 19.2
19:00 1015 29.97 844 24.92 18.7 65.6 16 -7.2 19
19:05 1015 29.97 844 24.92 18.6 65.5 18 -6.2 20.8
19:10 1015 29.97 844 24.92 18.7 65.7 16 -7.3 18.8
19:15 1015 29.97 844 24.92 18.5 65.4 17 -6.8 19.8
19:20 1015 29.97 844 24.92 18.5 65.3 17 -7 19.4
19:25 1015 29.97 844 24.92 18.5 65.2 17 -6.6 20.1
19:30 1015 29.97 844 24.92 18.5 65.2 24 -2.3 27.8
19:35 1015 29.97 844 24.92 17.8 64 32 0.9 33.6
19:40 1015 29.97 844 24.92 17.1 62.8 34 1.2 34.2
19:45 1015 29.97 844 24.92 16.8 62.3 35 1.3 34.3
19:50 1015 29.97 844 24.92 16.6 61.9 36 1.6 34.8
19:55 1015 29.97 844 24.92 16.3 61.4 37 1.7 35.1
20:00 1015 29.97 844 24.92 16.1 61 37 1.7 35.1
20:05 1015 29.97 844 24.92 16 60.7 38 1.9 35.4
20:10 1015 29.97 844 24.92 15.8 60.4 39 1.9 35.4
20:15 1015 29.97 844 24.92 15.6 60.1 40 2 35.6
20:20 1015 29.97 844 24.92 15.4 59.7 40 2 35.7
20:25 1015 29.97 844 24.92 15.2 59.4 40 1.9 35.5
20:30 1015 29.97 844 24.92 15.1 59.1 41 1.9 35.4
20:35 1015 29.97 844 24.92 15 59.1 41 2 35.5
20:40 1015 29.97 844 24.92 14.9 58.8 42 2 35.7
20:45 1015 29.97 844 24.92 14.7 58.5 42 2.1 35.8
20:50 1015 29.97 844 24.92 14.6 58.2 43 2.3 36.2
20:55 1015 29.97 844 24.92 14.3 57.8 44 2.2 36
21:00 1015 29.97 844 24.92 14.2 57.5 45 2.4 36.3
21:05 1015 29.97 845 24.95 13.9 57 46 2.6 36.6
21:10 1015 29.97 845 24.95 13.7 56.7 47 2.7 36.8
21:15 1015 29.97 845 24.95 13.5 56.2 48 2.9 37.2
21:20 1015 29.97 845 24.95 13.2 55.7 50 3.1 37.5
21:25 1015 29.97 845 24.95 12.9 55.2 51 3.1 37.7
21:30 1015 29.97 845 24.95 12.7 54.9 52 3.1 37.6
21:35 1015 29.97 845 24.95 12.6 54.7 52 3.1 37.6
21:40 1015 29.97 845 24.95 12.5 54.5 53 3.2 37.7
21:45 1015 29.97 845 24.95 12.4 54.3 53 3.1 37.6
21:50 1015 29.97 845 24.95 12.3 54.2 53 3 37.4
21:55 1015 29.97 845 24.95 12.2 54 53 3 37.4
22:00 1015 29.97 845 24.95 12.1 53.8 54 3 37.4
22:05 1015 29.97 845 24.95 12 53.6 53 2.9 37.2
22:10 1015 29.97 845 24.95 11.9 53.5 53 2.8 37
22:15 1015 29.97 845 24.95 11.9 53.4 54 2.8 37
22:20 1015 29.97 845 24.95 11.8 53.2 54 2.7 36.9
22:25 1015 29.97 844 24.92 11.7 53 54 2.8 37
22:30 1015 29.97 845 24.95 11.5 52.7 55 2.8 37
22:35 1015 29.97 844 24.92 11.5 52.6 55 2.7 36.8
22:40 1015 29.97 845 24.95 11.4 52.5 55 2.7 36.8
22:45 1015 29.97 844 24.92 11.3 52.4 55 2.6 36.7
22:50 1015 29.97 844 24.92 11.3 52.3 55 2.6 36.6
22:55 1015 29.97 844 24.92 11.2 52.1 55 2.6 36.7
23:00 1015 29.97 845 24.95 11.1 52 55 2.5 36.6
23:05 1015 29.97 844 24.92 11 51.8 56 2.5 36.5
23:10 1015 29.97 844 24.92 10.9 51.7 55 2.4 36.4
23:15 1015 29.97 844 24.92 10.9 51.5 56 2.4 36.3
23:20 1015 29.97 844 24.92 10.8 51.5 56 2.4 36.3
23:25 1015 29.97 844 24.92 10.8 51.4 56 2.3 36.2
23:30 1015 29.97 844 24.92 10.7 51.3 56 2.3 36.1
23:35 1015 29.97 844 24.92 10.7 51.3 56 2.3 36.1
23:40 1015 29.97 844 24.92 10.7 51.2 56 2.2 35.9
23:45 1015 29.97 844 24.92 10.6 51.1 56 2.2 36
23:50 1015 29.97 844 24.92 10.6 51.1 56 2.2 36
23:55 1015 29.97 844 24.92 10.5 50.8 57 2.2 36
24:00 1015 29.97 844 24.92 10.4 50.7 57 2.2 36